Anzahl Datensätze: 287
min. Temperatur: 14.8 °C
max. Temperatur: 22.1 °C
max. Windgeschwindigkeit: 17.6 km/h
Niederschlagsumme: 0.6 mm
| Datum |
Zeit |
Temp °C |
Feuchte % |
Taupunkt °C |
Luftdruck hPa |
Wind km/h |
Windrichtung |
Strahlung w/m² |
Niederschlag mm |
|---|---|---|---|---|---|---|---|---|---|
| 16.06.2020 | 00:04 | 17.4 | 86 | 15.0 | 1016.7 | 1.4 | NO | 0 | 0.6 |
| 16.06.2020 | 00:08 | 17.3 | 86 | 14.9 | 1016.7 | 1.4 | NNO | 0 | 0.0 |
| 16.06.2020 | 00:14 | 17.2 | 86 | 14.8 | 1016.6 | 1.4 | ONO | 0 | 0.0 |
| 16.06.2020 | 00:18 | 17.1 | 86 | 14.7 | 1016.6 | 1.4 | ONO | 0 | 0.0 |
| 16.06.2020 | 00:24 | 17.1 | 86 | 14.7 | 1016.5 | 1.4 | NO | 0 | 0.0 |
| 16.06.2020 | 00:28 | 17.0 | 86 | 14.6 | 1016.5 | 1.4 | NO | 0 | 0.0 |
| 16.06.2020 | 00:34 | 16.9 | 86 | 14.5 | 1016.5 | 1.4 | O | 0 | 0.0 |
| 16.06.2020 | 00:38 | 16.9 | 86 | 14.5 | 1016.5 | 1.4 | ONO | 0 | 0.0 |
| 16.06.2020 | 00:44 | 16.8 | 86 | 14.4 | 1016.5 | 1.4 | NO | 0 | 0.0 |
| 16.06.2020 | 00:48 | 16.8 | 86 | 14.4 | 1016.5 | 1.4 | ONO | 0 | 0.0 |
| 16.06.2020 | 00:54 | 16.8 | 86 | 14.4 | 1016.4 | 0.0 | O | 0 | 0.0 |
| 16.06.2020 | 00:58 | 16.7 | 86 | 14.3 | 1016.4 | 0.0 | O | 0 | 0.0 |
| 16.06.2020 | 01:04 | 16.7 | 86 | 14.3 | 1016.5 | 0.0 | O | 0 | 0.0 |
| 16.06.2020 | 01:08 | 16.6 | 86 | 14.2 | 1016.5 | 0.0 | O | 0 | 0.0 |
| 16.06.2020 | 01:14 | 16.6 | 87 | 14.4 | 1016.5 | 0.0 | O | 0 | 0.0 |
| 16.06.2020 | 01:18 | 16.6 | 87 | 14.4 | 1016.5 | 0.0 | O | 0 | 0.0 |
| 16.06.2020 | 01:24 | 16.6 | 87 | 14.4 | 1016.5 | 0.0 | O | 0 | 0.0 |
| 16.06.2020 | 01:28 | 16.6 | 87 | 14.4 | 1016.5 | 0.0 | O | 0 | 0.0 |
| 16.06.2020 | 01:34 | 16.5 | 87 | 14.3 | 1016.4 | 0.0 | O | 0 | 0.0 |
| 16.06.2020 | 01:38 | 16.4 | 88 | 14.4 | 1016.4 | 0.0 | O | 0 | 0.0 |
| 16.06.2020 | 01:44 | 16.3 | 88 | 14.3 | 1016.3 | 0.0 | O | 0 | 0.0 |
| 16.06.2020 | 01:48 | 16.3 | 88 | 14.3 | 1016.3 | 0.0 | O | 0 | 0.0 |
| 16.06.2020 | 01:54 | 16.2 | 89 | 14.4 | 1016.3 | 0.0 | O | 0 | 0.0 |
| 16.06.2020 | 01:58 | 16.1 | 90 | 14.5 | 1016.3 | 0.0 | O | 0 | 0.0 |
| 16.06.2020 | 02:04 | 16.1 | 90 | 14.5 | 1016.3 | 0.0 | O | 0 | 0.0 |
| 16.06.2020 | 02:08 | 16.0 | 90 | 14.4 | 1016.3 | 0.0 | O | 0 | 0.0 |
| 16.06.2020 | 02:14 | 15.9 | 91 | 14.4 | 1016.2 | 0.0 | O | 0 | 0.0 |
| 16.06.2020 | 02:18 | 15.9 | 91 | 14.4 | 1016.2 | 0.0 | O | 0 | 0.0 |
| 16.06.2020 | 02:24 | 15.8 | 92 | 14.5 | 1016.2 | 0.0 | O | 0 | 0.0 |
| 16.06.2020 | 02:28 | 15.7 | 92 | 14.4 | 1016.1 | 0.0 | O | 0 | 0.0 |
| 16.06.2020 | 02:34 | 15.6 | 93 | 14.5 | 1016.1 | 0.0 | O | 0 | 0.0 |
| 16.06.2020 | 02:38 | 15.6 | 93 | 14.5 | 1016.1 | 0.0 | O | 0 | 0.0 |
| 16.06.2020 | 02:44 | 15.6 | 93 | 14.5 | 1016.0 | 0.0 | O | 0 | 0.0 |
| 16.06.2020 | 02:48 | 15.4 | 93 | 14.3 | 1016.0 | 0.0 | O | 0 | 0.0 |
| 16.06.2020 | 02:54 | 15.4 | 94 | 14.4 | 1015.9 | 0.0 | O | 0 | 0.0 |
| 16.06.2020 | 02:58 | 15.4 | 94 | 14.4 | 1015.9 | 0.0 | O | 0 | 0.0 |
| 16.06.2020 | 03:04 | 15.4 | 94 | 14.4 | 1015.9 | 0.0 | O | 0 | 0.0 |
| 16.06.2020 | 03:08 | 15.4 | 94 | 14.4 | 1015.9 | 0.0 | O | 0 | 0.0 |
| 16.06.2020 | 03:14 | 15.4 | 94 | 14.4 | 1015.9 | 0.0 | O | 0 | 0.0 |
| 16.06.2020 | 03:18 | 15.4 | 94 | 14.4 | 1015.9 | 0.0 | O | 0 | 0.0 |
| 16.06.2020 | 03:24 | 15.4 | 95 | 14.6 | 1015.8 | 0.0 | O | 0 | 0.0 |
| 16.06.2020 | 03:28 | 15.3 | 95 | 14.5 | 1015.8 | 0.0 | O | 0 | 0.0 |
| 16.06.2020 | 03:34 | 15.3 | 95 | 14.5 | 1015.8 | 0.0 | O | 0 | 0.0 |
| 16.06.2020 | 03:38 | 15.3 | 95 | 14.5 | 1015.9 | 0.0 | O | 0 | 0.0 |
| 16.06.2020 | 03:44 | 15.3 | 95 | 14.5 | 1015.9 | 0.0 | O | 0 | 0.0 |
| 16.06.2020 | 03:48 | 15.3 | 95 | 14.5 | 1015.8 | 0.0 | O | 0 | 0.0 |
| 16.06.2020 | 03:54 | 15.3 | 95 | 14.5 | 1015.8 | 0.0 | O | 0 | 0.0 |
| 16.06.2020 | 03:58 | 15.4 | 95 | 14.6 | 1015.8 | 0.0 | O | 0 | 0.0 |
| 16.06.2020 | 04:04 | 15.3 | 95 | 14.5 | 1015.9 | 0.0 | O | 0 | 0.0 |
| 16.06.2020 | 04:08 | 15.2 | 95 | 14.4 | 1015.8 | 0.0 | O | 0 | 0.0 |
| 16.06.2020 | 04:14 | 15.2 | 95 | 14.4 | 1015.8 | 0.0 | O | 0 | 0.0 |
| 16.06.2020 | 04:18 | 15.2 | 96 | 14.6 | 1015.8 | 0.0 | O | 0 | 0.0 |
| 16.06.2020 | 04:24 | 15.2 | 96 | 14.6 | 1015.7 | 0.0 | O | 0 | 0.0 |
| 16.06.2020 | 04:28 | 15.2 | 96 | 14.6 | 1015.7 | 0.0 | O | 0 | 0.0 |
| 16.06.2020 | 04:34 | 15.2 | 96 | 14.6 | 1015.7 | 0.0 | O | 0 | 0.0 |
| 16.06.2020 | 04:38 | 15.2 | 96 | 14.6 | 1015.6 | 0.0 | O | 0 | 0.2 |
| 16.06.2020 | 04:44 | 15.1 | 96 | 14.5 | 1015.6 | 0.0 | O | 0 | 0.2 |
| 16.06.2020 | 04:48 | 15.0 | 96 | 14.4 | 1015.6 | 0.0 | O | 0 | 0.2 |
| 16.06.2020 | 04:54 | 14.9 | 96 | 14.3 | 1015.5 | 0.0 | O | 0 | 0.2 |
| 16.06.2020 | 04:58 | 14.9 | 96 | 14.3 | 1015.6 | 0.0 | O | 0 | 0.2 |
| 16.06.2020 | 05:04 | 14.9 | 96 | 14.3 | 1015.6 | 0.0 | O | 0 | 0.2 |
| 16.06.2020 | 05:08 | 14.9 | 96 | 14.3 | 1015.6 | 0.0 | O | 0 | 0.2 |
| 16.06.2020 | 05:14 | 14.9 | 96 | 14.3 | 1015.6 | 0.0 | O | 0 | 0.2 |
| 16.06.2020 | 05:18 | 14.8 | 97 | 14.3 | 1015.6 | 0.0 | O | 0 | 0.2 |
| 16.06.2020 | 05:24 | 14.8 | 97 | 14.3 | 1015.6 | 0.0 | O | 0 | 0.2 |
| 16.06.2020 | 05:28 | 14.8 | 97 | 14.3 | 1015.6 | 0.0 | O | 5 | 0.2 |
| 16.06.2020 | 05:34 | 14.8 | 97 | 14.3 | 1015.6 | 0.0 | O | 7 | 0.2 |
| 16.06.2020 | 05:38 | 14.8 | 97 | 14.3 | 1015.6 | 0.0 | O | 7 | 0.2 |
| 16.06.2020 | 05:44 | 14.8 | 97 | 14.3 | 1015.6 | 0.0 | O | 11 | 0.2 |
| 16.06.2020 | 05:48 | 14.8 | 97 | 14.3 | 1015.6 | 0.0 | O | 12 | 0.2 |
| 16.06.2020 | 05:54 | 14.8 | 97 | 14.3 | 1015.5 | 0.0 | O | 14 | 0.2 |
| 16.06.2020 | 05:58 | 14.8 | 97 | 14.3 | 1015.5 | 0.0 | O | 12 | 0.2 |
| 16.06.2020 | 06:04 | 14.8 | 97 | 14.3 | 1015.4 | 0.0 | O | 12 | 0.2 |
| 16.06.2020 | 06:08 | 14.8 | 97 | 14.3 | 1015.4 | 0.0 | O | 14 | 0.2 |
| 16.06.2020 | 06:14 | 14.9 | 97 | 14.4 | 1015.4 | 0.0 | O | 18 | 0.2 |
| 16.06.2020 | 06:18 | 14.9 | 97 | 14.4 | 1015.5 | 0.0 | O | 21 | 0.2 |
| 16.06.2020 | 06:24 | 15.0 | 97 | 14.5 | 1015.5 | 0.0 | O | 26 | 0.2 |
| 16.06.2020 | 06:28 | 15.0 | 97 | 14.5 | 1015.5 | 0.0 | O | 30 | 0.2 |
| 16.06.2020 | 06:34 | 15.1 | 97 | 14.6 | 1015.6 | 0.0 | O | 32 | 0.2 |
| 16.06.2020 | 06:38 | 15.2 | 97 | 14.7 | 1015.6 | 0.0 | O | 37 | 0.2 |
| 16.06.2020 | 06:44 | 15.2 | 97 | 14.7 | 1015.6 | 0.0 | O | 40 | 0.2 |
| 16.06.2020 | 06:48 | 15.3 | 97 | 14.8 | 1015.6 | 0.0 | O | 46 | 0.2 |
| 16.06.2020 | 06:54 | 15.4 | 97 | 14.9 | 1015.6 | 0.0 | NO | 53 | 0.2 |
| 16.06.2020 | 06:58 | 15.4 | 97 | 14.9 | 1015.6 | 0.0 | NO | 58 | 0.2 |
| 16.06.2020 | 07:04 | 15.5 | 97 | 15.0 | 1015.5 | 0.0 | NO | 69 | 0.2 |
| 16.06.2020 | 07:08 | 15.6 | 97 | 15.1 | 1015.6 | 0.0 | NO | 72 | 0.2 |
| 16.06.2020 | 07:14 | 15.7 | 97 | 15.2 | 1015.6 | 0.0 | NO | 79 | 0.2 |
| 16.06.2020 | 07:18 | 15.7 | 97 | 15.2 | 1015.6 | 0.0 | NO | 83 | 0.2 |
| 16.06.2020 | 07:24 | 15.7 | 97 | 15.2 | 1015.5 | 0.0 | NO | 88 | 0.2 |
| 16.06.2020 | 07:28 | 15.8 | 97 | 15.3 | 1015.5 | 0.0 | NO | 86 | 0.2 |
| 16.06.2020 | 07:34 | 15.9 | 97 | 15.4 | 1015.5 | 0.0 | NO | 84 | 0.2 |
| 16.06.2020 | 07:38 | 16.0 | 97 | 15.5 | 1015.6 | 0.0 | NO | 86 | 0.2 |
| 16.06.2020 | 07:44 | 16.1 | 96 | 15.5 | 1015.6 | 0.0 | OSO | 83 | 0.2 |
| 16.06.2020 | 07:48 | 16.1 | 96 | 15.5 | 1015.6 | 0.0 | OSO | 81 | 0.2 |
| 16.06.2020 | 07:54 | 16.1 | 96 | 15.5 | 1015.6 | 0.0 | OSO | 81 | 0.2 |
| 16.06.2020 | 07:58 | 16.2 | 96 | 15.6 | 1015.6 | 0.0 | OSO | 88 | 0.2 |
| 16.06.2020 | 08:04 | 16.2 | 96 | 15.6 | 1015.6 | 0.0 | SSW | 98 | 0.2 |
| 16.06.2020 | 08:08 | 16.3 | 97 | 15.8 | 1015.6 | 0.0 | SSW | 107 | 0.2 |
| 16.06.2020 | 08:14 | 16.3 | 97 | 15.8 | 1015.6 | 0.0 | SSW | 120 | 0.2 |
| 16.06.2020 | 08:18 | 16.4 | 96 | 15.8 | 1015.5 | 0.0 | SSW | 127 | 0.2 |
| 16.06.2020 | 08:24 | 16.5 | 96 | 15.9 | 1015.6 | 0.0 | SSW | 139 | 0.2 |
| 16.06.2020 | 08:28 | 16.6 | 97 | 16.1 | 1015.6 | 0.0 | SSW | 148 | 0.4 |
| 16.06.2020 | 08:34 | 16.7 | 97 | 16.2 | 1015.6 | 0.0 | SSW | 165 | 0.4 |
| 16.06.2020 | 08:38 | 16.7 | 96 | 16.1 | 1015.7 | 0.0 | SSW | 179 | 0.4 |
| 16.06.2020 | 08:44 | 16.8 | 96 | 16.2 | 1015.7 | 0.0 | SSW | 188 | 0.4 |
| 16.06.2020 | 08:48 | 16.8 | 96 | 16.2 | 1015.6 | 0.0 | SSO | 192 | 0.4 |
| 16.06.2020 | 08:54 | 16.9 | 96 | 16.3 | 1015.7 | 0.0 | SSO | 200 | 0.4 |
| 16.06.2020 | 08:58 | 17.0 | 95 | 16.2 | 1015.7 | 0.0 | S | 211 | 0.4 |
| 16.06.2020 | 09:04 | 17.1 | 95 | 16.3 | 1015.7 | 0.0 | SSW | 236 | 0.4 |
| 16.06.2020 | 09:08 | 17.2 | 95 | 16.4 | 1015.7 | 0.0 | SSW | 253 | 0.4 |
| 16.06.2020 | 09:14 | 17.3 | 95 | 16.5 | 1015.7 | 0.0 | SSW | 278 | 0.4 |
| 16.06.2020 | 09:18 | 17.4 | 95 | 16.6 | 1015.8 | 0.0 | S | 306 | 0.4 |
| 16.06.2020 | 09:24 | 17.6 | 94 | 16.6 | 1015.7 | 0.0 | SO | 308 | 0.4 |
| 16.06.2020 | 09:28 | 17.7 | 94 | 16.7 | 1015.6 | 0.0 | S | 313 | 0.4 |
| 16.06.2020 | 09:34 | 17.7 | 94 | 16.7 | 1015.6 | 0.0 | SSW | 320 | 0.4 |
| 16.06.2020 | 09:38 | 17.7 | 93 | 16.6 | 1015.6 | 0.0 | SSW | 295 | 0.4 |
| 16.06.2020 | 09:44 | 17.8 | 92 | 16.5 | 1015.6 | 0.0 | SW | 308 | 0.4 |
| 16.06.2020 | 09:48 | 17.8 | 91 | 16.3 | 1015.6 | 0.0 | SW | 304 | 0.4 |
| 16.06.2020 | 09:54 | 17.7 | 91 | 16.2 | 1015.6 | 0.0 | WSW | 272 | 0.4 |
| 16.06.2020 | 09:58 | 17.8 | 91 | 16.3 | 1015.5 | 0.0 | W | 267 | 0.4 |
| 16.06.2020 | 10:08 | 18.0 | 91 | 16.5 | 1015.4 | 0.0 | W | 279 | 0.4 |
| 16.06.2020 | 10:14 | 17.9 | 92 | 16.6 | 1015.5 | 0.0 | SSW | 290 | 0.4 |
| 16.06.2020 | 10:18 | 17.9 | 91 | 16.4 | 1015.5 | 0.0 | SSW | 285 | 0.4 |
| 16.06.2020 | 10:24 | 18.0 | 90 | 16.3 | 1015.5 | 0.0 | SSW | 297 | 0.4 |
| 16.06.2020 | 10:28 | 18.3 | 92 | 17.0 | 1015.5 | 0.0 | S | 297 | 0.4 |
| 16.06.2020 | 10:34 | 18.3 | 91 | 16.8 | 1015.4 | 0.0 | SSW | 304 | 0.4 |
| 16.06.2020 | 10:38 | 18.2 | 90 | 16.5 | 1015.5 | 0.0 | SW | 285 | 0.4 |
| 16.06.2020 | 10:44 | 18.2 | 90 | 16.5 | 1015.4 | 0.0 | S | 309 | 0.4 |
| 16.06.2020 | 10:48 | 18.2 | 90 | 16.5 | 1015.4 | 0.0 | S | 339 | 0.4 |
| 16.06.2020 | 10:54 | 18.4 | 90 | 16.7 | 1015.4 | 0.0 | W | 367 | 0.4 |
| 16.06.2020 | 10:58 | 18.3 | 89 | 16.5 | 1015.4 | 0.0 | S | 380 | 0.4 |
| 16.06.2020 | 11:04 | 18.6 | 90 | 16.9 | 1015.3 | 0.0 | SW | 431 | 0.4 |
| 16.06.2020 | 11:08 | 18.6 | 90 | 16.9 | 1015.3 | 1.4 | S | 418 | 0.4 |
| 16.06.2020 | 11:14 | 18.7 | 89 | 16.8 | 1015.3 | 0.0 | S | 526 | 0.4 |
| 16.06.2020 | 11:18 | 18.7 | 89 | 16.8 | 1015.2 | 0.0 | S | 429 | 0.4 |
| 16.06.2020 | 11:24 | 18.9 | 88 | 16.9 | 1015.2 | 3.2 | S | 494 | 0.4 |
| 16.06.2020 | 11:28 | 18.9 | 89 | 17.0 | 1015.3 | 3.2 | SW | 538 | 0.4 |
| 16.06.2020 | 11:34 | 19.0 | 89 | 17.1 | 1015.3 | 3.2 | S | 473 | 0.4 |
| 16.06.2020 | 11:38 | 19.1 | 88 | 17.1 | 1015.2 | 1.4 | S | 425 | 0.4 |
| 16.06.2020 | 11:44 | 18.9 | 88 | 16.9 | 1015.2 | 1.4 | SW | 527 | 0.4 |
| 16.06.2020 | 11:48 | 19.1 | 88 | 17.1 | 1015.2 | 1.4 | SSO | 497 | 0.4 |
| 16.06.2020 | 11:54 | 19.2 | 87 | 17.0 | 1015.1 | 3.2 | S | 613 | 0.4 |
| 16.06.2020 | 11:58 | 19.6 | 87 | 17.4 | 1015.0 | 1.4 | SSW | 617 | 0.4 |
| 16.06.2020 | 12:04 | 19.8 | 85 | 17.2 | 1015.0 | 3.2 | SSW | 526 | 0.4 |
| 16.06.2020 | 12:08 | 19.7 | 84 | 16.9 | 1015.0 | 4.7 | SSW | 580 | 0.4 |
| 16.06.2020 | 12:14 | 19.7 | 84 | 16.9 | 1015.0 | 3.2 | W | 561 | 0.4 |
| 16.06.2020 | 12:18 | 19.5 | 83 | 16.5 | 1014.9 | 1.4 | SSO | 533 | 0.4 |
| 16.06.2020 | 12:24 | 19.7 | 84 | 16.9 | 1014.8 | 1.4 | SSO | 536 | 0.4 |
| 16.06.2020 | 12:28 | 19.7 | 84 | 16.9 | 1014.8 | 1.4 | S | 381 | 0.4 |
| 16.06.2020 | 12:34 | 19.7 | 85 | 17.1 | 1014.7 | 1.4 | S | 350 | 0.4 |
| 16.06.2020 | 12:38 | 19.7 | 85 | 17.1 | 1014.7 | 1.4 | S | 329 | 0.4 |
| 16.06.2020 | 12:44 | 19.6 | 85 | 17.0 | 1014.7 | 1.4 | S | 311 | 0.4 |
| 16.06.2020 | 12:48 | 19.5 | 85 | 16.9 | 1014.7 | 1.4 | S | 315 | 0.4 |
| 16.06.2020 | 12:54 | 19.4 | 85 | 16.8 | 1014.6 | 0.0 | S | 309 | 0.4 |
| 16.06.2020 | 12:58 | 19.4 | 85 | 16.8 | 1014.6 | 0.0 | OSO | 316 | 0.4 |
| 16.06.2020 | 13:04 | 19.4 | 84 | 16.6 | 1014.5 | 0.0 | OSO | 341 | 0.4 |
| 16.06.2020 | 13:08 | 19.6 | 84 | 16.8 | 1014.5 | 0.0 | SO | 364 | 0.4 |
| 16.06.2020 | 13:14 | 19.7 | 84 | 16.9 | 1014.4 | 0.0 | SO | 468 | 0.4 |
| 16.06.2020 | 13:18 | 19.8 | 83 | 16.8 | 1014.4 | 0.0 | SO | 431 | 0.4 |
| 16.06.2020 | 13:24 | 19.9 | 85 | 17.3 | 1014.3 | 0.0 | SO | 424 | 0.4 |
| 16.06.2020 | 13:28 | 20.0 | 84 | 17.2 | 1014.3 | 1.4 | SSO | 441 | 0.4 |
| 16.06.2020 | 13:34 | 20.1 | 84 | 17.3 | 1014.3 | 1.4 | SSO | 454 | 0.4 |
| 16.06.2020 | 13:38 | 20.1 | 82 | 16.9 | 1014.2 | 0.0 | SSO | 434 | 0.4 |
| 16.06.2020 | 13:44 | 20.0 | 81 | 16.6 | 1014.2 | 0.0 | SSO | 411 | 0.4 |
| 16.06.2020 | 13:48 | 20.2 | 81 | 16.8 | 1014.2 | 0.0 | OSO | 417 | 0.4 |
| 16.06.2020 | 13:54 | 20.6 | 82 | 17.4 | 1014.2 | 0.0 | NO | 461 | 0.4 |
| 16.06.2020 | 13:58 | 20.7 | 80 | 17.1 | 1014.2 | 0.0 | NO | 397 | 0.4 |
| 16.06.2020 | 14:04 | 20.6 | 80 | 17.0 | 1014.2 | 0.0 | ONO | 410 | 0.4 |
| 16.06.2020 | 14:08 | 20.7 | 80 | 17.1 | 1014.2 | 1.4 | N | 418 | 0.4 |
| 16.06.2020 | 14:14 | 20.9 | 79 | 17.1 | 1014.2 | 1.4 | NNO | 496 | 0.4 |
| 16.06.2020 | 14:18 | 20.9 | 77 | 16.7 | 1014.2 | 1.4 | O | 587 | 0.4 |
| 16.06.2020 | 14:24 | 21.0 | 78 | 17.0 | 1014.2 | 1.4 | ONO | 383 | 0.4 |
| 16.06.2020 | 14:28 | 20.7 | 77 | 16.5 | 1014.2 | 1.4 | ONO | 301 | 0.4 |
| 16.06.2020 | 14:34 | 20.6 | 79 | 16.8 | 1014.1 | 1.4 | N | 204 | 0.4 |
| 16.06.2020 | 14:38 | 20.4 | 79 | 16.6 | 1014.1 | 3.2 | NNW | 183 | 0.4 |
| 16.06.2020 | 14:44 | 20.3 | 80 | 16.7 | 1014.0 | 3.2 | NNW | 178 | 0.4 |
| 16.06.2020 | 14:48 | 20.3 | 81 | 16.9 | 1014.0 | 1.4 | N | 181 | 0.4 |
| 16.06.2020 | 14:54 | 20.2 | 81 | 16.8 | 1014.0 | 1.4 | NO | 190 | 0.4 |
| 16.06.2020 | 14:58 | 20.3 | 82 | 17.1 | 1014.0 | 3.2 | NO | 197 | 0.4 |
| 16.06.2020 | 15:04 | 20.3 | 83 | 17.3 | 1014.0 | 4.7 | ONO | 207 | 0.4 |
| 16.06.2020 | 15:08 | 20.2 | 83 | 17.2 | 1014.0 | 3.2 | NNO | 207 | 0.4 |
| 16.06.2020 | 15:14 | 20.0 | 82 | 16.8 | 1014.0 | 3.2 | NNO | 236 | 0.4 |
| 16.06.2020 | 15:18 | 20.0 | 82 | 16.8 | 1013.9 | 3.2 | NNO | 232 | 0.4 |
| 16.06.2020 | 15:24 | 19.9 | 82 | 16.7 | 1014.0 | 4.7 | W | 234 | 0.4 |
| 16.06.2020 | 15:28 | 20.0 | 83 | 17.0 | 1014.0 | 3.2 | WNW | 243 | 0.4 |
| 16.06.2020 | 15:34 | 20.2 | 82 | 17.0 | 1013.8 | 3.2 | NW | 304 | 0.4 |
| 16.06.2020 | 15:38 | 20.3 | 83 | 17.3 | 1013.7 | 1.4 | NW | 399 | 0.4 |
| 16.06.2020 | 15:44 | 20.7 | 78 | 16.7 | 1013.8 | 3.2 | NNO | 387 | 0.4 |
| 16.06.2020 | 15:48 | 20.7 | 79 | 16.9 | 1013.7 | 4.7 | N | 341 | 0.4 |
| 16.06.2020 | 15:54 | 20.8 | 79 | 17.0 | 1013.7 | 4.7 | NO | 269 | 0.4 |
| 16.06.2020 | 15:58 | 20.6 | 79 | 16.8 | 1013.7 | 3.2 | NO | 258 | 0.4 |
| 16.06.2020 | 16:04 | 20.7 | 77 | 16.5 | 1013.6 | 3.2 | ONO | 262 | 0.4 |
| 16.06.2020 | 16:08 | 20.7 | 78 | 16.7 | 1013.6 | 3.2 | NNO | 295 | 0.4 |
| 16.06.2020 | 16:14 | 20.8 | 77 | 16.6 | 1013.7 | 3.2 | NNO | 357 | 0.4 |
| 16.06.2020 | 16:18 | 20.8 | 77 | 16.6 | 1013.7 | 1.4 | NNO | 399 | 0.4 |
| 16.06.2020 | 16:24 | 21.2 | 76 | 16.8 | 1013.6 | 3.2 | NNO | 557 | 0.4 |
| 16.06.2020 | 16:28 | 21.3 | 75 | 16.7 | 1013.6 | 4.7 | O | 301 | 0.4 |
| 16.06.2020 | 16:34 | 21.1 | 75 | 16.5 | 1013.6 | 3.2 | NO | 265 | 0.4 |
| 16.06.2020 | 16:38 | 21.1 | 75 | 16.5 | 1013.5 | 3.2 | ONO | 673 | 0.4 |
| 16.06.2020 | 16:44 | 21.7 | 74 | 16.9 | 1013.4 | 3.2 | N | 814 | 0.4 |
| 16.06.2020 | 16:48 | 21.7 | 71 | 16.2 | 1013.3 | 4.7 | NO | 773 | 0.4 |
| 16.06.2020 | 16:54 | 22.1 | 71 | 16.6 | 1013.3 | 6.5 | ONO | 740 | 0.4 |
| 16.06.2020 | 16:58 | 22.0 | 72 | 16.7 | 1013.2 | 6.5 | O | 744 | 0.4 |
| 16.06.2020 | 17:04 | 21.7 | 72 | 16.4 | 1013.2 | 4.7 | O | 211 | 0.4 |
| 16.06.2020 | 17:08 | 21.2 | 74 | 16.4 | 1013.1 | 3.2 | NNO | 227 | 0.4 |
| 16.06.2020 | 17:14 | 21.1 | 72 | 15.9 | 1013.1 | 4.7 | NNO | 207 | 0.4 |
| 16.06.2020 | 17:18 | 21.0 | 75 | 16.4 | 1013.1 | 4.7 | NO | 216 | 0.4 |
| 16.06.2020 | 17:24 | 20.9 | 73 | 15.9 | 1013.1 | 3.2 | NO | 220 | 0.4 |
| 16.06.2020 | 17:28 | 20.9 | 73 | 15.9 | 1013.2 | 1.4 | NO | 221 | 0.4 |
| 16.06.2020 | 17:34 | 20.8 | 71 | 15.3 | 1013.2 | 3.2 | NO | 257 | 0.4 |
| 16.06.2020 | 17:38 | 20.9 | 73 | 15.9 | 1013.1 | 3.2 | ONO | 271 | 0.4 |
| 16.06.2020 | 17:44 | 21.0 | 75 | 16.4 | 1013.1 | 3.2 | NO | 218 | 0.4 |
| 16.06.2020 | 17:48 | 20.9 | 75 | 16.3 | 1013.0 | 1.4 | NO | 190 | 0.4 |
| 16.06.2020 | 17:54 | 20.7 | 75 | 16.1 | 1013.0 | 1.4 | NNO | 171 | 0.4 |
| 16.06.2020 | 17:58 | 20.7 | 76 | 16.3 | 1012.9 | 1.4 | N | 169 | 0.4 |
| 16.06.2020 | 18:04 | 20.6 | 76 | 16.2 | 1012.9 | 3.2 | NO | 174 | 0.4 |
| 16.06.2020 | 18:08 | 20.5 | 76 | 16.1 | 1012.8 | 4.7 | NO | 192 | 0.4 |
| 16.06.2020 | 18:14 | 20.6 | 76 | 16.2 | 1012.7 | 3.2 | NNO | 192 | 0.4 |
| 16.06.2020 | 18:18 | 20.6 | 75 | 16.0 | 1012.8 | 3.2 | NO | 218 | 0.4 |
| 16.06.2020 | 18:24 | 20.6 | 76 | 16.2 | 1012.7 | 3.2 | N | 199 | 0.4 |
| 16.06.2020 | 18:28 | 20.7 | 76 | 16.3 | 1012.6 | 3.2 | N | 174 | 0.4 |
| 16.06.2020 | 18:34 | 20.7 | 76 | 16.3 | 1012.6 | 3.2 | NO | 144 | 0.4 |
| 16.06.2020 | 18:38 | 20.6 | 76 | 16.2 | 1012.6 | 1.4 | NNO | 132 | 0.4 |
| 16.06.2020 | 18:44 | 20.6 | 77 | 16.4 | 1012.7 | 1.4 | OSO | 118 | 0.4 |
| 16.06.2020 | 18:48 | 20.6 | 77 | 16.4 | 1012.6 | 1.4 | OSO | 123 | 0.4 |
| 16.06.2020 | 18:54 | 20.6 | 77 | 16.4 | 1012.5 | 1.4 | NNO | 125 | 0.4 |
| 16.06.2020 | 18:58 | 20.6 | 77 | 16.4 | 1012.5 | 1.4 | ONO | 128 | 0.4 |
| 16.06.2020 | 19:04 | 20.5 | 77 | 16.3 | 1012.4 | 1.4 | NO | 130 | 0.4 |
| 16.06.2020 | 19:08 | 20.5 | 78 | 16.5 | 1012.4 | 0.0 | NO | 130 | 0.4 |
| 16.06.2020 | 19:14 | 20.5 | 77 | 16.3 | 1012.4 | 0.0 | NNO | 137 | 0.4 |
| 16.06.2020 | 19:18 | 20.5 | 77 | 16.3 | 1012.4 | 1.4 | NO | 128 | 0.4 |
| 16.06.2020 | 19:24 | 20.4 | 78 | 16.4 | 1012.4 | 1.4 | NNO | 137 | 0.4 |
| 16.06.2020 | 19:28 | 20.4 | 77 | 16.2 | 1012.4 | 1.4 | N | 125 | 0.4 |
| 16.06.2020 | 19:34 | 20.3 | 78 | 16.3 | 1012.3 | 1.4 | NNO | 111 | 0.4 |
| 16.06.2020 | 19:38 | 20.2 | 78 | 16.2 | 1012.3 | 1.4 | NNO | 91 | 0.4 |
| 16.06.2020 | 19:44 | 20.2 | 78 | 16.2 | 1012.3 | 1.4 | NNW | 79 | 0.4 |
| 16.06.2020 | 19:48 | 20.1 | 78 | 16.1 | 1012.3 | 0.0 | NO | 116 | 0.4 |
| 16.06.2020 | 19:54 | 20.1 | 79 | 16.3 | 1012.2 | 0.0 | NNO | 76 | 0.4 |
| 16.06.2020 | 19:58 | 20.1 | 79 | 16.3 | 1012.2 | 0.0 | NNO | 83 | 0.4 |
| 16.06.2020 | 20:04 | 19.9 | 80 | 16.3 | 1012.2 | 0.0 | N | 58 | 0.4 |
| 16.06.2020 | 20:08 | 19.7 | 81 | 16.3 | 1012.1 | 0.0 | NNW | 47 | 0.4 |
| 16.06.2020 | 20:14 | 19.5 | 82 | 16.3 | 1012.1 | 0.0 | NNO | 47 | 0.4 |
| 16.06.2020 | 20:18 | 19.4 | 83 | 16.4 | 1012.2 | 0.0 | NNO | 53 | 0.4 |
| 16.06.2020 | 20:24 | 19.4 | 83 | 16.4 | 1012.2 | 0.0 | NNO | 53 | 0.4 |
| 16.06.2020 | 20:28 | 19.3 | 83 | 16.3 | 1012.1 | 0.0 | NO | 49 | 0.4 |
| 16.06.2020 | 20:34 | 19.3 | 83 | 16.3 | 1012.1 | 0.0 | NO | 44 | 0.4 |
| 16.06.2020 | 20:38 | 19.2 | 83 | 16.2 | 1012.2 | 0.0 | NO | 44 | 0.4 |
| 16.06.2020 | 20:44 | 19.1 | 84 | 16.3 | 1012.2 | 0.0 | NO | 37 | 0.4 |
| 16.06.2020 | 20:48 | 19.1 | 84 | 16.3 | 1012.2 | 0.0 | NO | 35 | 0.4 |
| 16.06.2020 | 20:54 | 18.9 | 84 | 16.1 | 1012.2 | 0.0 | NO | 30 | 0.4 |
| 16.06.2020 | 20:58 | 18.8 | 84 | 16.0 | 1012.2 | 0.0 | NO | 25 | 0.4 |
| 16.06.2020 | 21:04 | 18.5 | 86 | 16.1 | 1012.1 | 0.0 | NO | 21 | 0.4 |
| 16.06.2020 | 21:08 | 18.4 | 87 | 16.2 | 1012.1 | 0.0 | NO | 19 | 0.4 |
| 16.06.2020 | 21:14 | 18.1 | 87 | 15.9 | 1012.2 | 0.0 | NO | 16 | 0.4 |
| 16.06.2020 | 21:18 | 17.9 | 88 | 15.9 | 1012.3 | 0.0 | NO | 14 | 0.4 |
| 16.06.2020 | 21:24 | 17.8 | 89 | 16.0 | 1012.2 | 0.0 | NO | 12 | 0.4 |
| 16.06.2020 | 21:28 | 17.8 | 89 | 16.0 | 1012.2 | 0.0 | NO | 9 | 0.4 |
| 16.06.2020 | 21:34 | 17.7 | 90 | 16.0 | 1012.3 | 0.0 | NO | 7 | 0.4 |
| 16.06.2020 | 21:38 | 17.7 | 90 | 16.0 | 1012.3 | 0.0 | NO | 5 | 0.4 |
| 16.06.2020 | 21:44 | 17.6 | 90 | 15.9 | 1012.3 | 0.0 | NO | 0 | 0.4 |
| 16.06.2020 | 21:48 | 17.4 | 90 | 15.7 | 1012.3 | 0.0 | NO | 0 | 0.4 |
| 16.06.2020 | 21:54 | 17.2 | 91 | 15.7 | 1012.4 | 0.0 | NO | 0 | 0.4 |
| 16.06.2020 | 21:58 | 17.1 | 91 | 15.6 | 1012.3 | 0.0 | NO | 0 | 0.4 |
| 16.06.2020 | 22:04 | 17.1 | 92 | 15.8 | 1012.4 | 0.0 | NO | 0 | 0.4 |
| 16.06.2020 | 22:08 | 17.1 | 92 | 15.8 | 1012.4 | 0.0 | NO | 0 | 0.4 |
| 16.06.2020 | 22:14 | 17.0 | 92 | 15.7 | 1012.4 | 0.0 | NO | 0 | 0.4 |
| 16.06.2020 | 22:18 | 17.0 | 92 | 15.7 | 1012.5 | 0.0 | NO | 0 | 0.4 |
| 16.06.2020 | 22:24 | 16.9 | 92 | 15.6 | 1012.5 | 0.0 | NO | 0 | 0.4 |
| 16.06.2020 | 22:28 | 16.9 | 93 | 15.8 | 1012.5 | 0.0 | NO | 0 | 0.4 |
| 16.06.2020 | 22:34 | 16.8 | 93 | 15.7 | 1012.6 | 0.0 | NO | 0 | 0.4 |
| 16.06.2020 | 22:38 | 16.8 | 92 | 15.5 | 1012.6 | 0.0 | NO | 0 | 0.4 |
| 16.06.2020 | 22:44 | 16.6 | 93 | 15.5 | 1012.6 | 0.0 | NO | 0 | 0.4 |
| 16.06.2020 | 22:48 | 16.6 | 93 | 15.5 | 1012.6 | 0.0 | NO | 0 | 0.4 |
| 16.06.2020 | 22:54 | 16.6 | 93 | 15.5 | 1012.6 | 0.0 | NO | 0 | 0.4 |
| 16.06.2020 | 22:58 | 16.6 | 93 | 15.5 | 1012.6 | 0.0 | NO | 0 | 0.4 |
| 16.06.2020 | 23:04 | 16.6 | 93 | 15.5 | 1012.6 | 0.0 | NO | 0 | 0.4 |
| 16.06.2020 | 23:08 | 16.5 | 93 | 15.4 | 1012.6 | 0.0 | NO | 0 | 0.4 |
| 16.06.2020 | 23:14 | 16.4 | 93 | 15.3 | 1012.6 | 0.0 | NO | 0 | 0.4 |
| 16.06.2020 | 23:18 | 16.3 | 93 | 15.2 | 1012.7 | 0.0 | NO | 0 | 0.4 |
| 16.06.2020 | 23:24 | 16.2 | 93 | 15.1 | 1012.7 | 0.0 | NNO | 0 | 0.4 |
| 16.06.2020 | 23:28 | 16.2 | 94 | 15.2 | 1012.7 | 0.0 | NNO | 0 | 0.4 |
| 16.06.2020 | 23:34 | 16.2 | 94 | 15.2 | 1012.8 | 0.0 | N | 0 | 0.4 |
| 16.06.2020 | 23:38 | 16.2 | 94 | 15.2 | 1012.7 | 0.0 | N | 0 | 0.4 |
| 16.06.2020 | 23:44 | 16.1 | 94 | 15.1 | 1012.7 | 0.0 | N | 0 | 0.4 |
| 16.06.2020 | 23:48 | 16.1 | 94 | 15.1 | 1012.7 | 0.0 | N | 0 | 0.4 |
| 16.06.2020 | 23:54 | 16.0 | 95 | 15.2 | 1012.7 | 0.0 | N | 0 | 0.4 |
| 16.06.2020 | 23:58 | 16.0 | 95 | 15.2 | 1012.7 | 0.0 | N | 0 | 0.4 |